Time;durP1;ratioP1;P1;durP2;ratioP2;P2;SDS_P1;SDS_P2;PMS_P1;PMS_P2;Temp;Humidity;BMP_temperature;BMP_pressure;BME280_temperature;BME280_humidity;BME280_pressure;Samples;Min_cycle;Max_cycle;Signal;HPM_P1;HPM_P2
2022/05/03 00:00:45;;;;;;;8.65;3.47;;;;;;;12.91;64.95;99916.22;5029196;28;20033;-29
2022/05/03 00:03:39;;;;;;;6.00;3.90;;;;;;;12.79;65.21;99938.50;5028946;28;20815;-28
2022/05/03 00:06:13;;;;;;;5.80;3.47;;;;;;;12.89;64.85;99937.06;5029220;28;20112;-31
2022/05/03 00:08:53;;;;;;;6.75;3.30;;;;;;;12.73;65.59;99912.69;5028902;28;20036;-30
2022/05/03 00:11:50;;;;;;;8.05;3.47;;;;;;;12.82;65.70;99937.22;5028968;28;20076;-29
2022/05/03 00:14:31;;;;;;;6.03;3.70;;;;;;;12.95;65.36;99938.78;5029171;28;20037;-29
2022/05/03 00:16:57;;;;;;;5.93;3.20;;;;;;;12.63;66.38;99928.53;5028778;28;20033;-30
2022/05/03 00:19:22;;;;;;;4.95;3.17;;;;;;;12.84;66.28;99935.91;5027601;28;20026;-33
2022/05/03 00:21:48;;;;;;;5.80;3.03;;;;;;;12.93;65.85;99931.00;5028535;28;20029;-29
2022/05/03 00:24:15;;;;;;;5.05;3.05;;;;;;;12.83;66.51;99917.41;5028883;28;20460;-29
2022/05/03 00:26:40;;;;;;;7.30;3.30;;;;;;;12.75;66.48;99932.00;5028743;28;20056;-29
2022/05/03 00:29:06;;;;;;;4.63;3.17;;;;;;;12.79;66.22;99917.09;5028668;28;20486;-29
2022/05/03 00:31:32;;;;;;;5.72;3.33;;;;;;;12.56;67.53;99927.84;5028525;28;20026;-32
2022/05/03 00:33:57;;;;;;;7.53;3.90;;;;;;;12.44;67.62;99911.78;5028472;28;20037;-28
2022/05/03 00:36:24;;;;;;;5.53;2.92;;;;;;;12.82;66.40;99924.63;5026690;28;20099;-29
2022/05/03 00:38:51;;;;;;;6.53;3.33;;;;;;;12.69;66.97;99929.44;5028117;28;20036;-29
2022/05/03 00:41:37;;;;;;;7.95;3.75;;;;;;;12.67;67.26;99924.34;5027117;28;20037;-29
2022/05/03 00:47:20;;;;;;;6.03;3.28;;;;;;;12.61;67.73;99911.91;5028406;28;20048;-31
2022/05/03 00:50:04;;;;;;;6.70;3.30;;;;;;;12.46;69.44;99917.72;5028686;28;20497;-30
2022/05/03 00:52:54;;;;;;;6.85;3.55;;;;;;;12.24;70.25;99909.50;5026734;28;20553;-30
2022/05/03 00:55:44;;;;;;;6.85;3.60;;;;;;;12.29;69.48;99924.84;5028619;28;20116;-30
2022/05/03 00:58:38;;;;;;;5.90;3.58;;;;;;;12.37;70.02;99919.94;5026538;28;20029;-29
2022/05/03 01:01:21;;;;;;;7.40;3.67;;;;;;;12.50;70.11;99902.84;5027697;28;20033;-32
2022/05/03 01:04:00;;;;;;;5.45;3.25;;;;;;;12.63;69.74;99907.13;5028160;28;20091;-29
2022/05/03 01:06:46;;;;;;;6.10;3.17;;;;;;;12.76;68.89;99917.56;5028191;28;20492;-28
2022/05/03 01:09:15;;;;;;;7.50;3.63;;;;;;;12.58;69.33;99912.38;5026624;28;20033;-30
2022/05/03 01:11:47;;;;;;;7.65;3.40;;;;;;;12.55;69.70;99912.84;5026598;28;20033;-30
2022/05/03 01:15:14;;;;;;;6.13;3.70;;;;;;;12.48;70.25;99914.81;5028314;28;20037;-29
2022/05/03 01:18:00;;;;;;;6.68;3.50;;;;;;;12.37;69.68;99903.91;4959998;28;20045;-29
2022/05/03 01:20:52;;;;;;;8.88;3.30;;;;;;;12.56;69.66;99917.13;5028319;28;20090;-31
2022/05/03 01:23:36;;;;;;;5.95;3.30;;;;;;;12.53;69.45;99906.91;5027809;28;20052;-32
2022/05/03 01:26:39;;;;;;;5.45;4.03;;;;;;;12.43;69.66;99908.31;5026501;28;20452;-28
2022/05/03 01:29:34;;;;;;;6.43;3.50;;;;;;;12.38;70.47;99905.53;5027719;28;20024;-29
2022/05/03 01:32:08;;;;;;;8.43;3.97;;;;;;;12.38;71.04;99912.72;5027667;28;20033;-30
2022/05/03 01:34:34;;;;;;;5.63;3.47;;;;;;;12.56;69.35;99901.88;5027535;28;20105;-31
2022/05/03 01:37:00;;;;;;;5.38;3.30;;;;;;;12.51;68.77;99914.38;5027228;28;20056;-29
2022/05/03 01:39:47;;;;;;;5.78;3.50;;;;;;;12.60;69.16;99905.72;5026037;28;20038;-28
2022/05/03 01:42:25;;;;;;;5.88;3.30;;;;;;;12.48;69.38;99901.44;5027375;28;20064;-30
2022/05/03 01:45:03;;;;;;;6.40;3.25;;;;;;;12.48;68.67;99898.78;5027171;28;20030;-29
2022/05/03 01:47:47;;;;;;;7.78;3.67;;;;;;;12.25;70.25;99898.56;5026051;28;20033;-29
2022/05/03 01:50:30;;;;;;;6.13;3.80;;;;;;;12.27;71.36;99893.00;5027450;28;20113;-29
2022/05/03 01:53:10;;;;;;;8.43;3.65;;;;;;;12.06;72.90;99867.69;5025588;28;20029;-31
2022/05/03 01:56:08;;;;;;;7.75;4.07;;;;;;;12.34;71.88;99888.34;5027068;28;20448;-29
2022/05/03 01:58:45;;;;;;;5.45;3.47;;;;;;;12.32;71.56;99901.13;5027286;28;20034;-28
2022/05/03 02:01:32;;;;;;;6.07;3.35;;;;;;;12.29;72.67;99901.59;5026864;28;20715;-29
2022/05/03 02:04:21;;;;;;;6.28;3.67;;;;;;;12.43;71.32;99913.66;5027299;28;20112;-29
2022/05/03 02:07:11;;;;;;;7.00;3.92;;;;;;;12.24;73.75;99912.19;5023270;28;20064;-29
2022/05/03 02:10:15;;;;;;;7.57;4.30;;;;;;;12.03;76.23;99909.06;5023140;28;20529;-30
2022/05/03 02:12:45;;;;;;;7.45;3.83;;;;;;;11.83;77.05;99893.31;5025648;28;20085;-29
2022/05/03 02:15:15;;;;;;;6.03;3.83;;;;;;;11.96;78.31;99903.00;5027147;28;20087;-29
2022/05/03 02:18:03;;;;;;;7.22;4.00;;;;;;;11.88;78.76;99905.97;5025777;28;20029;-29
2022/05/03 02:20:34;;;;;;;;;;;;;;;11.74;80.32;99920.59;5027342;28;20053;-29
2022/05/03 02:23:34;;;;;;;6.43;4.13;;;;;;;11.99;79.67;99923.09;5025370;28;19917;-30
2022/05/03 02:26:18;;;;;;;7.25;4.05;;;;;;;12.16;79.42;99923.22;5025463;28;20037;-34
2022/05/03 02:29:16;;;;;;;7.85;4.50;;;;;;;12.02;79.97;99922.63;5026689;28;20033;-29
2022/05/03 02:32:02;;;;;;;6.55;3.97;;;;;;;12.00;80.63;99920.19;5026292;28;20050;-29
2022/05/03 02:34:45;;;;;;;9.85;4.80;;;;;;;11.97;79.27;99914.50;5026826;28;20115;-31
2022/05/03 02:37:15;;;;;;;8.98;4.68;;;;;;;11.83;79.68;99903.19;5024792;28;20441;-29
2022/05/03 02:39:52;;;;;;;8.20;4.15;;;;;;;12.04;79.15;99918.69;5025491;28;20025;-34
2022/05/03 02:42:19;;;;;;;7.22;4.43;;;;;;;12.27;78.68;99925.06;5026814;28;20045;-30
2022/05/03 02:44:47;;;;;;;7.90;4.00;;;;;;;12.09;79.92;99920.66;5026878;28;20083;-28
2022/05/03 02:47:32;;;;;;;9.02;5.10;;;;;;;11.88;79.45;99916.66;5025321;28;20804;-32
2022/05/03 02:50:08;;;;;;;8.90;4.35;;;;;;;11.88;80.52;99923.88;5015087;28;20041;-29
2022/05/03 02:52:39;;;;;;;8.38;4.82;;;;;;;11.97;81.12;99926.00;5025293;28;20045;-30
2022/05/03 02:55:06;;;;;;;8.73;4.90;;;;;;;11.95;81.75;99927.28;5026565;28;20114;-31
2022/05/03 02:58:00;;;;;;;9.45;4.10;;;;;;;11.78;81.92;99924.44;5026553;28;20025;-34
2022/05/03 03:03:16;;;;;;;7.45;4.43;;;;;;;12.04;80.99;99929.38;5026932;28;20055;-30
2022/05/03 03:05:44;;;;;;;8.43;4.70;;;;;;;11.82;81.91;99933.63;5026671;28;20033;-30
2022/05/03 03:08:14;;;;;;;8.57;4.70;;;;;;;11.76;82.96;99937.22;5026763;28;20136;-28
2022/05/03 03:11:16;;;;;;;7.50;5.00;;;;;;;11.78;82.61;99937.78;5026177;28;20029;-32
2022/05/03 03:14:20;;;;;;;10.00;4.82;;;;;;;11.79;84.04;99945.59;5025042;28;20041;-28
2022/05/03 03:17:05;;;;;;;11.57;4.75;;;;;;;11.53;84.94;99943.31;5024389;28;20517;-34
2022/05/03 03:19:36;;;;;;;10.40;4.93;;;;;;;11.55;84.89;99955.41;5026830;28;20084;-31
2022/05/03 03:22:02;;;;;;;9.90;4.75;;;;;;;11.56;86.36;99951.66;5026217;28;20036;-29
2022/05/03 03:24:31;;;;;;;10.65;5.15;;;;;;;11.50;85.45;99930.41;5026440;28;20025;-36
2022/05/03 03:27:00;;;;;;;10.07;4.72;;;;;;;11.99;83.55;99950.66;5028282;28;20140;-29
2022/05/03 03:29:27;;;;;;;7.57;4.82;;;;;;;12.09;83.14;99963.41;5029650;28;20067;-28
2022/05/03 03:31:55;;;;;;;8.30;4.95;;;;;;;11.94;82.95;99955.84;5029554;28;20045;-29
2022/05/03 03:34:21;;;;;;;10.05;5.18;;;;;;;12.34;81.75;99957.88;5030284;28;20109;-29
2022/05/03 03:36:49;;;;;;;7.55;4.70;;;;;;;12.24;81.99;99957.63;5027996;28;20061;-31
2022/05/03 03:39:15;;;;;;;;;;;;;;;12.02;84.74;99955.53;5030218;28;20521;-29
2022/05/03 03:41:41;;;;;;;11.57;5.22;;;;;;;11.71;85.94;99959.28;5029107;28;19913;-32
2022/05/03 03:44:08;;;;;;;8.25;6.07;;;;;;;11.99;83.07;99966.69;5028690;28;20429;-31
2022/05/03 03:46:33;;;;;;;9.20;6.07;;;;;;;11.97;82.58;99971.44;5029707;28;20029;-29
2022/05/03 03:48:59;;;;;;;9.07;5.80;;;;;;;11.83;83.46;99967.31;5029492;28;20044;-31
2022/05/03 03:51:25;;;;;;;11.10;6.50;;;;;;;11.63;83.97;99963.09;5029502;28;20025;-29
2022/05/03 03:53:52;;;;;;;10.55;8.27;;;;;;;11.32;86.13;99940.13;5028008;28;20033;-30
2022/05/03 03:56:18;;;;;;;10.10;6.70;;;;;;;11.12;88.58;99959.06;5027977;28;20033;-35
2022/05/03 03:58:44;;;;;;;10.85;6.57;;;;;;;10.78;91.85;99963.97;5027805;28;20052;-32
2022/05/03 04:01:09;;;;;;;10.38;6.60;;;;;;;10.98;91.53;99968.28;5029857;28;20409;-29
2022/05/03 04:03:37;;;;;;;10.10;6.22;;;;;;;10.97;90.82;99958.63;5028146;28;20029;-31
2022/05/03 04:06:04;;;;;;;11.77;6.85;;;;;;;11.15;92.62;99990.63;5029562;28;20038;-30
2022/05/03 04:08:31;;;;;;;12.73;7.20;;;;;;;11.33;91.34;99999.66;5029719;28;20191;-32
2022/05/03 04:10:56;;;;;;;10.35;7.57;;;;;;;11.35;92.60;99997.59;5028946;28;20806;-32
2022/05/03 04:13:22;;;;;;;12.65;7.38;;;;;;;11.41;88.27;99999.34;5029575;28;20120;-31
2022/05/03 04:15:50;;;;;;;11.50;7.22;;;;;;;11.22;89.30;99988.72;5029242;28;20032;-32
2022/05/03 04:18:16;;;;;;;11.70;7.03;;;;;;;11.15;89.65;99987.16;5027935;28;20040;-33
2022/05/03 04:20:41;;;;;;;10.65;6.65;;;;;;;11.03;90.00;99968.41;5028782;28;20029;-29
2022/05/03 04:23:09;;;;;;;10.75;7.43;;;;;;;11.18;90.19;99976.84;5029249;28;20064;-29
2022/05/03 04:25:35;;;;;;;10.50;7.68;;;;;;;11.25;88.62;99990.91;5028894;28;20029;-31
2022/05/03 04:28:00;;;;;;;10.70;6.97;;;;;;;11.21;87.82;99987.06;5028936;28;20178;-32
2022/05/03 04:30:26;;;;;;;11.30;7.03;;;;;;;11.19;88.79;99989.13;5029337;28;20036;-29
2022/05/03 04:32:51;;;;;;;8.48;6.00;;;;;;;11.08;88.54;99981.09;5028888;28;20034;-29
2022/05/03 04:35:17;;;;;;;8.98;6.05;;;;;;;11.36;88.92;100004.53;5028976;28;20041;-28
2022/05/03 04:37:42;;;;;;;9.73;5.75;;;;;;;11.36;88.65;100001.88;5027535;28;20049;-32
2022/05/03 04:40:08;;;;;;;9.77;6.13;;;;;;;11.61;87.60;100007.09;5027239;28;20812;-32
2022/05/03 04:42:34;;;;;;;9.27;5.28;;;;;;;11.59;86.96;100004.66;5028498;28;20130;-31
2022/05/03 04:44:59;;;;;;;9.77;5.65;;;;;;;11.58;87.65;100005.66;5028658;28;20037;-28
2022/05/03 04:47:24;;;;;;;10.60;6.10;;;;;;;11.48;87.71;100002.72;5028732;28;20030;-31
2022/05/03 04:49:50;;;;;;;8.88;5.55;;;;;;;11.30;87.39;99978.75;5028639;28;20485;-32
2022/05/03 04:52:15;;;;;;;9.52;5.82;;;;;;;11.39;88.55;99990.75;5028548;28;20425;-33
2022/05/03 04:54:41;;;;;;;10.10;5.60;;;;;;;11.21;88.70;99973.72;5027954;28;20172;-32
2022/05/03 04:57:07;;;;;;;9.93;5.28;;;;;;;11.08;89.35;99963.22;5028797;28;20032;-29
2022/05/03 04:59:33;;;;;;;8.00;5.38;;;;;;;11.11;89.77;99984.09;5027287;28;20033;-29
2022/05/03 05:01:59;;;;;;;10.27;5.78;;;;;;;11.27;88.30;100004.84;5027052;28;20026;-29
2022/05/03 05:04:24;;;;;;;9.38;5.95;;;;;;;11.10;88.36;99993.16;5027079;28;20033;-31
2022/05/03 05:06:50;;;;;;;9.00;5.97;;;;;;;11.17;90.83;100007.22;5028009;28;20112;-29
2022/05/03 05:09:16;;;;;;;9.10;5.05;;;;;;;11.16;89.89;99994.94;5026630;28;20041;-34
2022/05/03 05:11:41;;;;;;;10.65;5.68;;;;;;;11.42;88.11;100004.47;5028068;28;20025;-32
2022/05/03 05:14:07;;;;;;;9.05;5.70;;;;;;;11.28;89.19;100013.69;5028256;28;20060;-31
2022/05/03 05:16:32;;;;;;;8.82;5.70;;;;;;;11.36;88.71;100029.41;5027989;28;20075;-30
2022/05/03 05:18:58;;;;;;;9.32;5.78;;;;;;;11.20;88.23;99993.47;5027989;28;20031;-30
2022/05/03 05:21:23;;;;;;;9.50;5.45;;;;;;;11.07;88.58;99990.94;5027861;28;20580;-30
2022/05/03 05:23:48;;;;;;;9.10;4.65;;;;;;;11.01;88.02;100005.16;5028033;28;20461;-31
2022/05/03 05:26:14;;;;;;;8.73;5.13;;;;;;;11.01;88.97;100019.34;5027690;28;20025;-30
2022/05/03 05:28:40;;;;;;;8.30;5.32;;;;;;;11.10;89.51;100033.19;5027493;28;20037;-36
2022/05/03 05:31:05;;;;;;;9.25;5.70;;;;;;;11.05;90.53;100025.03;5026429;28;20056;-30
2022/05/03 05:33:31;;;;;;;9.70;5.68;;;;;;;11.10;90.40;100038.53;5026102;28;20599;-33
2022/05/03 05:35:57;;;;;;;7.80;5.03;;;;;;;11.04;89.16;100023.41;5027320;28;20033;-30
2022/05/03 05:38:22;;;;;;;11.05;5.53;;;;;;;11.23;89.52;100030.34;5025954;28;20045;-31
2022/05/03 05:40:48;;;;;;;7.00;3.75;;;;;;;11.37;86.42;100048.91;5026051;28;20034;-32
2022/05/03 05:43:15;;;;;;;8.57;4.28;;;;;;;11.38;87.45;100048.69;5027590;28;20029;-30
2022/05/03 05:45:41;;;;;;;10.77;4.82;;;;;;;11.18;90.66;100062.25;5026169;28;20627;-32
2022/05/03 05:48:08;;;;;;;7.50;4.78;;;;;;;11.13;91.07;100064.78;5009595;28;20026;-31
2022/05/03 05:50:34;;;;;;;7.40;5.00;;;;;;;10.98;92.07;100061.66;5026101;28;20030;-29
2022/05/03 05:55:44;;;;;;;8.88;5.32;;;;;;;10.97;91.55;100065.34;5027604;28;20072;-33
2022/05/03 05:58:09;;;;;;;11.75;5.43;;;;;;;11.25;86.67;100068.31;5026216;28;20068;-30
2022/05/03 06:00:35;;;;;;;11.88;5.63;;;;;;;11.26;87.36;100077.97;5027433;28;20103;-30
2022/05/03 06:03:01;;;;;;;9.05;6.22;;;;;;;11.49;86.75;100071.13;5027331;28;20112;-33
2022/05/03 06:05:27;;;;;;;10.10;6.32;;;;;;;11.39;86.20;100049.50;5025883;28;20036;-29
2022/05/03 06:07:53;;;;;;;9.38;6.00;;;;;;;11.50;85.73;100054.06;5025813;28;20544;-33
2022/05/03 06:10:22;;;;;;;9.68;6.53;;;;;;;11.55;88.08;100072.91;5027194;28;20428;-31
2022/05/03 06:12:47;;;;;;;9.38;6.00;;;;;;;11.50;86.74;100066.59;5025549;28;20071;-37
2022/05/03 06:15:13;;;;;;;8.43;5.60;;;;;;;11.40;85.64;100059.97;5025623;28;20029;-30
2022/05/03 06:17:40;;;;;;;10.23;5.68;;;;;;;11.49;86.58;100073.00;5025713;28;20470;-31
2022/05/03 06:20:10;;;;;;;9.88;5.80;;;;;;;11.17;86.90;100049.13;5027133;28;20025;-29
2022/05/03 06:22:35;;;;;;;10.75;6.00;;;;;;;11.20;88.60;100059.38;5025661;28;20517;-34
2022/05/03 06:25:01;;;;;;;9.32;5.63;;;;;;;11.07;88.56;100030.97;5025479;28;20036;-31
2022/05/03 06:27:26;;;;;;;9.80;5.78;;;;;;;11.20;88.34;100046.84;5025584;28;20478;-29
2022/05/03 06:29:51;;;;;;;9.45;5.25;;;;;;;11.03;88.81;100043.13;5027183;28;20547;-36
2022/05/03 06:32:17;;;;;;;9.02;5.72;;;;;;;10.89;89.67;100062.97;5027142;28;20486;-29
2022/05/03 06:34:42;;;;;;;9.40;5.85;;;;;;;10.97;90.42;100060.03;5026722;28;20559;-29
2022/05/03 06:37:08;;;;;;;8.57;5.15;;;;;;;10.85;89.96;100046.63;5025329;28;20429;-32
2022/05/03 06:39:36;;;;;;;10.07;6.22;;;;;;;10.77;90.95;100061.06;5027043;28;20104;-29
2022/05/03 06:42:06;;;;;;;9.30;6.60;;;;;;;10.81;90.46;100051.56;5027355;28;20124;-29
2022/05/03 06:44:32;;;;;;;10.05;6.25;;;;;;;10.27;90.84;100037.03;5025549;28;20040;-33
2022/05/03 06:46:57;;;;;;;8.65;5.65;;;;;;;10.40;91.99;100057.47;5026656;28;20037;-29
2022/05/03 06:49:23;;;;;;;9.15;5.30;;;;;;;10.35;91.08;100052.78;5026645;28;20052;-33
2022/05/03 06:51:49;;;;;;;8.95;6.05;;;;;;;10.44;91.63;100058.66;5026604;28;20033;-31
2022/05/03 06:54:14;;;;;;;9.40;5.78;;;;;;;10.27;92.37;100056.50;5025310;28;20036;-29
2022/05/03 06:56:40;;;;;;;10.98;6.50;;;;;;;10.10;92.79;100038.63;5026454;28;20413;-30
2022/05/03 06:59:08;;;;;;;9.40;5.80;;;;;;;10.36;91.39;100046.44;5025203;28;20036;-34
2022/05/03 07:01:35;;;;;;;7.93;5.28;;;;;;;10.26;89.93;100028.25;5028878;28;20421;-30
2022/05/03 07:04:01;;;;;;;8.48;5.00;;;;;;;10.26;90.84;100043.41;5030027;28;20029;-36
2022/05/03 07:06:26;;;;;;;10.50;6.35;;;;;;;10.39;90.39;100042.53;5028752;28;20512;-32
2022/05/03 07:08:52;;;;;;;10.57;6.20;;;;;;;10.62;90.17;100041.91;5029999;28;20029;-32
2022/05/03 07:11:17;;;;;;;9.18;5.22;;;;;;;10.73;89.49;100057.19;5028699;28;20472;-30
2022/05/03 07:13:43;;;;;;;17.75;9.70;;;;;;;10.75;89.82;100036.44;5030406;28;20025;-29
2022/05/03 07:16:09;;;;;;;13.32;8.10;;;;;;;10.93;88.68;100054.34;5030536;28;20037;-34
2022/05/03 07:24:03;;;;;;;9.55;6.03;;;;;;;10.94;88.60;100039.13;5030221;28;20044;-29
2022/05/03 07:26:30;;;;;;;8.75;5.72;;;;;;;10.82;88.86;100069.19;5026702;28;20033;-34
2022/05/03 07:28:56;;;;;;;9.13;5.30;;;;;;;10.73;88.33;100043.84;5029248;28;20697;-29
2022/05/03 07:31:22;;;;;;;9.80;5.93;;;;;;;10.76;88.77;100054.06;5028868;28;20104;-32
2022/05/03 07:33:48;;;;;;;9.80;6.22;;;;;;;10.91;88.33;100066.25;5029295;28;20112;-30
2022/05/03 07:36:14;;;;;;;9.95;5.65;;;;;;;10.89;87.80;100074.50;5028386;28;20053;-29
2022/05/03 07:38:40;;;;;;;9.75;6.78;;;;;;;10.81;89.17;100059.56;5027320;28;20252;-33
2022/05/03 07:41:06;;;;;;;9.27;6.60;;;;;;;10.83;90.47;100070.84;5029575;28;20025;-37
2022/05/03 07:43:32;;;;;;;12.98;8.73;;;;;;;11.03;89.89;100070.66;5027814;28;20048;-33
2022/05/03 07:45:58;;;;;;;15.05;8.43;;;;;;;11.27;89.96;100092.94;5028158;28;20041;-29
2022/05/03 07:48:24;;;;;;;10.48;6.57;;;;;;;11.04;88.63;100076.78;5028091;28;20030;-30
2022/05/03 07:50:49;;;;;;;10.55;6.63;;;;;;;11.31;88.70;100092.50;5029255;28;20057;-30
2022/05/03 07:53:15;;;;;;;9.57;7.10;;;;;;;11.11;89.83;100096.19;5029389;28;20036;-33
2022/05/03 07:55:44;;;;;;;8.60;5.07;;;;;;;10.79;90.56;100095.53;5029596;28;20084;-30
2022/05/03 07:58:09;;;;;;;7.75;4.97;;;;;;;10.89;89.68;100095.84;5029171;28;20079;-35
2022/05/03 08:00:34;;;;;;;7.85;4.13;;;;;;;10.77;88.94;100079.72;5029304;28;20898;-32
2022/05/03 08:03:00;;;;;;;5.90;4.25;;;;;;;10.79;89.74;100091.00;5029061;28;20036;-32
2022/05/03 08:05:26;;;;;;;7.82;4.90;;;;;;;11.03;89.88;100099.16;5027689;28;20048;-31
2022/05/03 08:07:51;;;;;;;9.25;5.40;;;;;;;10.89;90.01;100084.31;5029028;28;20048;-29
2022/05/03 08:10:17;;;;;;;11.32;6.68;;;;;;;10.90;89.55;100072.63;5029057;28;20037;-30
2022/05/03 08:12:43;;;;;;;11.20;7.10;;;;;;;11.00;89.85;100096.94;5028269;28;20098;-29
2022/05/03 08:15:09;;;;;;;7.82;5.05;;;;;;;11.13;89.17;100094.13;5028957;28;20021;-29
2022/05/03 08:17:35;;;;;;;7.40;5.55;;;;;;;10.93;89.55;100074.84;5028980;28;20274;-29
2022/05/03 08:20:00;;;;;;;7.47;5.32;;;;;;;10.93;88.58;100075.69;5028925;28;20040;-34
2022/05/03 08:22:26;;;;;;;8.70;5.30;;;;;;;10.75;90.92;100076.47;5028871;28;20448;-30
2022/05/03 08:24:52;;;;;;;9.00;5.80;;;;;;;11.10;90.59;100075.91;5028514;28;20025;-31
2022/05/03 08:27:18;;;;;;;7.75;5.35;;;;;;;11.03;90.11;100091.16;5027148;28;20068;-32
2022/05/03 08:29:44;;;;;;;9.75;5.55;;;;;;;11.04;91.37;100088.28;5027756;28;20098;-33
2022/05/03 08:32:10;;;;;;;8.55;6.00;;;;;;;11.13;92.40;100091.47;5027280;28;20029;-30
2022/05/03 08:34:35;;;;;;;8.70;6.57;;;;;;;11.16;90.94;100096.38;5028595;28;20029;-30
2022/05/03 08:42:30;;;;;;;7.57;5.47;;;;;;;10.82;90.17;100073.72;5028445;28;20041;-30
2022/05/03 08:44:57;;;;;;;9.50;5.72;;;;;;;11.04;90.17;100096.28;5026699;28;20029;-34
2022/05/03 08:47:27;;;;;;;9.88;5.68;;;;;;;11.18;90.11;100080.94;5026726;28;20026;-33
2022/05/03 08:49:56;;;;;;;9.13;5.38;;;;;;;11.32;89.14;100088.78;5026649;28;20421;-30
2022/05/03 08:52:23;;;;;;;7.30;4.70;;;;;;;11.38;90.18;100086.06;5027850;28;20053;-30
2022/05/03 08:54:50;;;;;;;8.27;4.65;;;;;;;11.63;90.27;100101.19;5026390;28;20083;-33
2022/05/03 08:57:18;;;;;;;8.38;4.53;;;;;;;11.65;87.74;100112.44;5010144;28;20031;-30
2022/05/03 08:59:45;;;;;;;8.82;3.83;;;;;;;11.53;87.53;100112.38;5026628;28;20029;-30
2022/05/03 09:02:11;;;;;;;7.03;4.07;;;;;;;11.70;89.26;100125.13;5026397;28;20138;-29
2022/05/03 09:04:37;;;;;;;8.85;4.05;;;;;;;11.84;85.43;100107.88;5026107;28;20180;-43
2022/05/03 09:07:36;;;;;;;6.20;3.97;;;;;;;11.89;85.33;100126.78;5027795;28;20104;-31
2022/05/03 09:10:36;;;;;;;7.40;4.15;;;;;;;11.87;86.56;100126.16;4994018;28;20041;-30
2022/05/03 09:13:17;;;;;;;6.57;4.00;;;;;;;11.83;84.46;100127.66;4993943;28;20103;-32
2022/05/03 09:15:42;;;;;;;5.80;3.70;;;;;;;11.77;83.48;100117.81;5026064;28;20037;-32
2022/05/03 09:18:18;;;;;;;5.10;3.15;;;;;;;11.73;82.91;100133.50;5027546;28;20164;-34
2022/05/03 09:26:13;;;;;;;6.20;3.55;;;;;;;11.78;83.69;100128.31;5027447;28;20044;-32
2022/05/03 09:28:50;;;;;;;5.37;3.27;;;;;;;11.86;85.48;100127.19;5025687;28;20128;-30
2022/05/03 09:31:48;;;;;;;7.00;3.83;;;;;;;12.02;85.22;100131.94;5027303;28;20095;-33
2022/05/03 09:34:18;;;;;;;5.63;3.28;;;;;;;12.01;83.74;100130.31;5013772;28;20099;-30
2022/05/03 09:36:46;;;;;;;5.40;3.28;;;;;;;12.06;81.76;100133.09;5025174;28;20049;-35
2022/05/03 09:39:22;;;;;;;6.57;3.03;;;;;;;11.77;83.90;100123.16;5025620;28;20042;-30
2022/05/03 09:42:15;;;;;;;4.47;2.70;;;;;;;11.91;84.34;100130.03;5025657;28;20144;-31
2022/05/03 09:44:49;;;;;;;6.05;3.00;;;;;;;11.99;83.77;100139.56;5027059;28;20037;-34
2022/05/03 09:47:15;;;;;;;5.65;3.08;;;;;;;11.91;83.43;100135.38;5027123;28;20550;-31
2022/05/03 09:49:42;;;;;;;4.03;2.80;;;;;;;11.78;84.78;100122.94;5027368;28;20029;-31
2022/05/03 09:52:09;;;;;;;4.32;2.72;;;;;;;11.86;84.13;100124.50;5025442;28;20067;-29
2022/05/03 09:54:48;;;;;;;4.68;2.83;;;;;;;12.21;84.29;100147.91;5025509;28;20033;-29
2022/05/03 09:57:22;;;;;;;4.78;2.90;;;;;;;12.10;83.44;100127.31;5025172;28;20548;-30
2022/05/03 09:59:49;;;;;;;4.60;2.65;;;;;;;12.21;81.74;100113.16;5025438;28;20025;-33
2022/05/03 10:02:19;;;;;;;3.72;2.65;;;;;;;12.27;80.58;100106.91;5025496;28;20033;-32
2022/05/03 10:04:46;;;;;;;4.88;2.97;;;;;;;12.16;82.18;100116.53;5024940;28;20030;-30
2022/05/03 10:07:12;;;;;;;5.40;2.92;;;;;;;12.47;81.70;100106.59;5025040;28;20033;-36
2022/05/03 10:09:40;;;;;;;7.80;3.72;;;;;;;12.50;79.90;100113.34;5025268;28;20611;-31
2022/05/03 10:12:08;;;;;;;5.20;3.40;;;;;;;12.71;81.14;100091.38;5025277;28;20119;-30
2022/05/03 10:14:34;;;;;;;4.60;2.72;;;;;;;12.70;77.24;100089.75;5026506;28;20040;-30
2022/05/03 10:22:37;;;;;;;6.43;3.67;;;;;;;12.85;76.92;100082.06;5026887;28;20127;-31
2022/05/03 10:25:04;;;;;;;5.80;3.22;;;;;;;12.97;78.69;100099.97;5026629;28;20049;-29
2022/05/03 10:27:32;;;;;;;5.47;3.78;;;;;;;13.18;80.30;100102.06;5025130;28;20034;-31
2022/05/03 10:30:19;;;;;;;6.28;3.13;;;;;;;13.03;78.03;100096.38;5026426;28;20037;-31
2022/05/03 10:32:44;;;;;;;4.93;3.15;;;;;;;13.25;77.93;100107.28;5024664;28;20532;-31
2022/05/03 10:35:34;;;;;;;5.82;3.42;;;;;;;13.15;79.47;100101.72;5027821;28;20061;-30
2022/05/03 10:38:00;;;;;;;6.30;3.58;;;;;;;13.31;79.83;100094.84;5029067;28;20065;-32
2022/05/03 10:40:39;;;;;;;5.30;3.22;;;;;;;12.76;78.54;100091.50;5030493;28;20032;-33
2022/05/03 10:43:13;;;;;;;4.10;3.22;;;;;;;13.02;79.84;100102.78;5030684;28;20029;-30
2022/05/03 10:45:55;;;;;;;6.93;4.07;;;;;;;13.33;82.05;100100.78;5030746;28;20030;-38
2022/05/03 10:48:28;;;;;;;6.95;4.28;;;;;;;12.91;80.82;100077.63;5028876;28;20057;-33
2022/05/03 10:50:57;;;;;;;4.80;2.97;;;;;;;12.67;79.05;100058.13;5028624;28;20026;-33
2022/05/03 10:53:24;;;;;;;5.07;3.03;;;;;;;13.15;77.88;100081.09;5030411;28;20044;-30
2022/05/03 10:56:12;;;;;;;5.30;3.10;;;;;;;13.15;77.38;100097.16;5012583;28;20112;-31
2022/05/03 10:58:40;;;;;;;4.18;2.65;;;;;;;12.93;74.79;100077.41;5030068;28;20044;-39
2022/05/03 11:01:22;;;;;;;4.35;2.97;;;;;;;13.04;75.45;100090.78;5028680;28;20116;-37
2022/05/03 11:03:47;;;;;;;5.90;3.42;;;;;;;13.11;77.87;100089.84;5028811;28;20041;-32
2022/05/03 11:06:18;;;;;;;5.10;3.00;;;;;;;13.30;75.97;100094.06;5030330;28;20036;-30
2022/05/03 11:11:42;;;;;;;5.70;3.20;;;;;;;13.20;78.12;100083.91;5029863;28;20033;-29
2022/05/03 11:14:20;;;;;;;5.00;3.33;;;;;;;13.26;75.04;100088.31;5028371;28;20584;-31
2022/05/03 11:16:47;;;;;;;7.45;3.92;;;;;;;13.30;75.51;100085.19;5028284;28;20029;-29
2022/05/03 11:19:24;;;;;;;12.20;6.93;;;;;;;13.23;75.51;100093.31;5028415;28;20060;-29
2022/05/03 11:21:51;;;;;;;9.82;5.00;;;;;;;13.11;74.71;100061.19;5029670;28;20031;-31
2022/05/03 11:24:23;;;;;;;4.43;3.00;;;;;;;12.95;76.31;100086.81;5028178;28;20091;-31
2022/05/03 11:26:52;;;;;;;6.95;3.55;;;;;;;13.01;75.83;100085.88;5028150;28;20025;-32
2022/05/03 11:29:18;;;;;;;6.38;3.30;;;;;;;13.14;75.93;100100.91;5028239;28;20025;-30
2022/05/03 11:31:48;;;;;;;4.15;2.60;;;;;;;13.00;75.55;100088.81;5029749;28;20033;-37
2022/05/03 11:34:13;;;;;;;5.22;2.70;;;;;;;12.36;80.06;100094.00;5028042;28;20068;-32
2022/05/03 11:36:42;;;;;;;3.47;2.15;;;;;;;11.79;83.07;100078.34;5029037;28;20115;-30
2022/05/03 11:39:09;;;;;;;5.68;2.75;;;;;;;11.49;82.87;100089.84;5029336;28;20095;-34
2022/05/03 11:41:37;;;;;;;5.47;3.80;;;;;;;10.88;85.85;100112.06;5028014;28;20033;-32
2022/05/03 11:44:03;;;;;;;8.43;4.55;;;;;;;10.79;86.45;100096.31;5027718;28;20406;-30
2022/05/03 11:46:29;;;;;;;8.15;5.38;;;;;;;10.58;88.41;100094.88;5027324;28;20052;-29
2022/05/03 11:49:01;;;;;;;12.88;6.82;;;;;;;10.59;88.66;100099.16;5027547;28;20029;-33
2022/05/03 11:57:19;;;;;;;5.68;4.10;;;;;;;10.96;90.64;100117.91;5029199;28;20048;-32
2022/05/03 11:59:45;;;;;;;4.47;3.42;;;;;;;11.08;89.71;100112.69;5027257;28;20498;-31
2022/05/03 12:02:20;;;;;;;6.00;2.97;;;;;;;10.88;88.44;100096.03;5027571;28;20025;-33
2022/05/03 12:05:04;;;;;;;3.70;2.60;;;;;;;10.91;87.50;100116.94;5027553;28;20148;-30
2022/05/03 12:07:39;;;;;;;4.07;2.50;;;;;;;11.00;88.31;100112.97;5028858;28;20018;-29
2022/05/03 12:10:16;;;;;;;3.88;2.50;;;;;;;11.23;86.89;100107.78;5027328;28;20025;-29
2022/05/03 12:12:45;;;;;;;3.60;2.50;;;;;;;11.30;86.75;100101.53;5027209;28;20041;-30
2022/05/03 12:15:14;;;;;;;2.92;2.28;;;;;;;11.39;88.79;100100.22;5029180;28;20039;-29
2022/05/03 12:17:59;;;;;;;3.70;2.10;;;;;;;11.44;84.83;100092.34;5027380;28;20034;-31
2022/05/03 12:20:27;;;;;;;3.70;2.40;;;;;;;11.60;86.26;100107.75;5027338;28;20124;-35
2022/05/03 12:23:17;;;;;;;3.90;2.20;;;;;;;11.68;83.81;100087.13;5027191;28;20481;-30
2022/05/03 12:25:45;;;;;;;4.55;2.70;;;;;;;11.85;84.93;100104.19;5028485;28;20414;-30